Time;durP1;ratioP1;P1;durP2;ratioP2;P2;SDS_P1;SDS_P2;PMS_P1;PMS_P2;Temp;Humidity;BMP_temperature;BMP_pressure;BME280_temperature;BME280_humidity;BME280_pressure;Samples;Min_cycle;Max_cycle;Signal;HPM_P1;HPM_P2
2022/07/09 00:00:28;;;;;;;2.78;2.50;;;24.00;55.80;25.50;101990.00;;;;5066724;28;20166;-43
2022/07/09 00:02:54;;;;;;;3.65;2.60;;;23.90;56.00;25.50;101994.00;;;;5066106;28;20227;-44
2022/07/09 00:05:19;;;;;;;4.03;2.50;;;24.00;55.80;25.50;101992.00;;;;5066524;28;20169;-45
2022/07/09 00:07:45;;;;;;;2.70;2.50;;;24.00;55.70;25.50;101992.00;;;;5065513;28;20189;-43
2022/07/09 00:10:11;;;;;;;2.70;2.50;;;24.10;55.80;25.40;101986.00;;;;5065104;28;20619;-45
2022/07/09 00:12:37;;;;;;;3.10;2.80;;;24.10;55.80;25.40;101991.00;;;;5065717;28;20872;-43
2022/07/09 00:15:03;;;;;;;3.33;2.50;;;23.90;55.90;25.40;101994.00;;;;5066171;28;20165;-44
2022/07/09 00:17:31;;;;;;;3.03;2.50;;;23.90;56.60;25.40;101992.00;;;;5064969;28;20190;-43
2022/07/09 00:19:57;;;;;;;3.13;2.57;;;24.00;55.90;25.30;101992.00;;;;5066671;28;20243;-42
2022/07/09 00:22:23;;;;;;;2.60;2.40;;;24.00;55.70;25.30;101991.00;;;;5066800;28;20342;-43
2022/07/09 00:24:48;;;;;;;3.17;2.50;;;24.00;55.60;25.30;101987.00;;;;5066030;28;20275;-44
2022/07/09 00:27:14;;;;;;;2.67;2.47;;;24.10;55.70;25.30;101986.00;;;;5066695;28;20845;-43
2022/07/09 00:29:40;;;;;;;4.30;2.70;;;23.90;55.70;25.30;101976.00;;;;5066267;28;20590;-44
2022/07/09 00:32:06;;;;;;;3.03;2.70;;;23.80;56.00;25.30;101986.00;;;;5066442;28;20236;-45
2022/07/09 00:34:33;;;;;;;3.53;2.60;;;23.70;56.20;25.20;101984.00;;;;5066256;28;20158;-43
2022/07/09 00:36:59;;;;;;;4.13;2.90;;;23.70;56.20;25.20;101983.00;;;;5065968;28;20280;-44
2022/07/09 00:39:25;;;;;;;4.73;3.17;;;23.60;56.20;25.20;101980.00;;;;5065700;28;20193;-45
2022/07/09 00:42:04;;;;;;;2.90;2.70;;;23.60;56.20;25.20;101974.00;;;;5066112;28;20205;-45
2022/07/09 00:44:30;;;;;;;3.30;2.67;;;23.60;56.40;25.20;101963.00;;;;5066189;28;20299;-44
2022/07/09 00:46:55;;;;;;;3.17;2.60;;;23.60;56.40;25.20;101971.00;;;;5065912;28;20423;-43
2022/07/09 00:49:21;;;;;;;4.17;2.90;;;23.60;56.40;25.20;101970.00;;;;5065724;28;20829;-42
2022/07/09 00:51:47;;;;;;;4.00;2.80;;;23.60;56.30;25.20;101966.00;;;;5064398;28;20196;-44
2022/07/09 00:54:12;;;;;;;3.40;2.70;;;23.60;56.40;25.20;101958.00;;;;5065625;28;20268;-43
2022/07/09 00:56:38;;;;;;;2.67;2.47;;;23.50;56.30;25.10;101964.00;;;;5064380;28;20193;-43
2022/07/09 00:59:09;;;;;;;3.80;2.73;;;23.50;56.30;25.10;101895.00;;;;5066346;28;20224;-43
2022/07/09 01:01:36;;;;;;;2.90;2.60;;;23.60;56.40;25.10;101969.00;;;;5050336;28;20171;-44
2022/07/09 01:04:01;;;;;;;3.50;2.90;;;23.60;56.30;25.10;101951.00;;;;5066607;28;20720;-43
2022/07/09 01:06:27;;;;;;;3.20;2.60;;;23.50;56.10;25.10;101950.00;;;;5065451;28;20232;-44
2022/07/09 01:08:53;;;;;;;3.67;3.00;;;23.50;56.10;25.00;101949.00;;;;5065879;28;20181;-44
2022/07/09 01:11:19;;;;;;;3.53;2.80;;;23.50;56.10;25.00;101952.00;;;;5065752;28;20209;-44
2022/07/09 01:13:44;;;;;;;3.07;2.57;;;23.50;56.20;25.00;101953.00;;;;5065663;28;20169;-44
2022/07/09 01:16:15;;;;;;;2.93;2.60;;;23.50;56.10;25.00;101950.00;;;;5065838;28;20186;-46
2022/07/09 01:18:45;;;;;;;3.03;2.63;;;23.50;56.10;25.00;101957.00;;;;5077825;28;20169;-44
2022/07/09 01:21:12;;;;;;;2.60;2.40;;;23.50;56.10;24.90;101948.00;;;;5078712;28;20197;-44
2022/07/09 01:23:37;;;;;;;3.53;2.70;;;23.50;56.10;24.90;101952.00;;;;5069923;28;20193;-45
2022/07/09 01:26:03;;;;;;;2.87;2.60;;;23.50;56.00;24.90;101942.00;;;;5066380;28;20215;-45
2022/07/09 01:28:29;;;;;;;3.70;2.70;;;23.50;56.10;24.90;101954.00;;;;5072123;28;20208;-44
2022/07/09 01:30:55;;;;;;;2.50;2.30;;;23.40;56.00;24.90;101952.00;;;;5067782;28;20203;-44
2022/07/09 01:33:21;;;;;;;2.80;2.50;;;23.40;56.00;24.90;101949.00;;;;5064525;28;20162;-44
2022/07/09 01:35:46;;;;;;;2.80;2.50;;;23.50;56.10;24.80;101948.00;;;;5065384;28;20185;-44
2022/07/09 01:38:12;;;;;;;2.70;2.47;;;23.50;56.00;24.80;101949.00;;;;5065328;28;20248;-45
2022/07/09 01:40:38;;;;;;;2.93;2.40;;;23.60;56.00;24.80;101946.00;;;;5065699;28;20176;-44
2022/07/09 01:43:04;;;;;;;3.17;2.30;;;23.50;55.80;24.70;101939.00;;;;5065721;28;20257;-44
2022/07/09 01:45:29;;;;;;;3.47;2.63;;;23.60;55.70;24.70;101946.00;;;;5065727;28;20591;-44
2022/07/09 01:47:55;;;;;;;3.70;2.40;;;23.60;56.30;24.70;101942.00;;;;5065087;28;20742;-43
2022/07/09 01:50:21;;;;;;;3.30;2.53;;;23.50;55.60;24.70;101940.00;;;;5063847;28;20289;-44
2022/07/09 01:52:47;;;;;;;3.50;2.53;;;23.60;55.70;24.70;101943.00;;;;5065497;28;20181;-45
2022/07/09 01:55:12;;;;;;;3.70;2.70;;;23.50;55.70;24.70;101932.00;;;;5065552;28;20539;-44
2022/07/09 01:57:38;;;;;;;2.70;2.37;;;23.50;55.70;24.70;101934.00;;;;5065268;28;20570;-45
2022/07/09 02:00:05;;;;;;;3.17;2.60;;;23.50;55.70;24.60;101941.00;;;;5065145;28;20669;-44
2022/07/09 02:02:31;;;;;;;2.73;2.50;;;23.50;55.70;24.60;101931.00;;;;5065213;28;20170;-43
2022/07/09 02:04:56;;;;;;;3.37;2.50;;;23.50;55.70;24.60;101923.00;;;;5065175;28;20216;-44
2022/07/09 02:07:22;;;;;;;2.70;2.50;;;23.40;55.60;24.60;101922.00;;;;5064945;28;20189;-44
2022/07/09 02:09:49;;;;;;;2.67;2.47;;;23.40;55.60;24.60;101921.00;;;;5065438;28;20199;-44
2022/07/09 02:12:16;;;;;;;3.53;2.43;;;23.40;55.50;24.60;101923.00;;;;5068581;28;20581;-45
2022/07/09 02:14:42;;;;;;;2.50;2.30;;;23.40;55.50;24.50;101923.00;;;;5068996;28;20178;-44
2022/07/09 02:17:08;;;;;;;4.87;2.57;;;23.40;55.50;24.50;101921.00;;;;5068608;28;20186;-44
2022/07/09 02:19:34;;;;;;;3.00;2.70;;;23.40;55.50;24.50;101926.00;;;;5068317;28;20526;-45
2022/07/09 02:21:59;;;;;;;2.77;2.40;;;23.40;55.50;24.50;101918.00;;;;5068802;28;20174;-44
2022/07/09 02:24:25;;;;;;;4.23;2.80;;;23.40;55.50;24.50;101922.00;;;;5068966;28;20182;-43
2022/07/09 02:26:51;;;;;;;3.30;2.80;;;23.40;55.50;24.40;101915.00;;;;5068192;28;20548;-46
2022/07/09 02:29:17;;;;;;;3.10;2.80;;;23.40;55.40;24.40;101917.00;;;;5068359;28;20204;-43
2022/07/09 02:31:42;;;;;;;2.63;2.43;;;23.40;55.30;24.40;101913.00;;;;5068666;28;20201;-43
2022/07/09 02:34:08;;;;;;;2.90;2.60;;;23.40;55.40;24.40;101923.00;;;;5068589;28;20624;-43
2022/07/09 02:36:34;;;;;;;3.07;2.40;;;23.40;55.30;24.40;101917.00;;;;5068459;28;20192;-44
2022/07/09 02:38:59;;;;;;;2.80;2.60;;;23.30;55.40;24.40;101910.00;;;;5068366;28;20174;-44
2022/07/09 02:41:25;;;;;;;2.83;2.40;;;23.30;55.30;24.10;101918.00;;;;5068801;28;20177;-45
2022/07/09 02:43:51;;;;;;;2.60;2.40;;;23.40;55.50;24.30;101918.00;;;;5068335;28;20170;-43
2022/07/09 02:46:17;;;;;;;4.77;2.60;;;23.30;55.40;24.30;101912.00;;;;5068670;28;20240;-43
2022/07/09 02:48:42;;;;;;;2.73;2.50;;;23.30;55.50;24.30;101910.00;;;;5068013;28;20256;-45
2022/07/09 02:51:08;;;;;;;2.87;2.33;;;23.30;55.50;24.20;101910.00;;;;5068219;28;20225;-44
2022/07/09 02:53:34;;;;;;;3.53;2.80;;;23.20;55.50;24.20;101904.00;;;;5068095;28;20214;-45
2022/07/09 02:56:00;;;;;;;3.90;2.57;;;23.20;55.80;24.20;101902.00;;;;5068281;28;20219;-43
2022/07/09 02:58:25;;;;;;;3.13;2.50;;;23.10;55.70;24.20;101907.00;;;;5067941;28;20212;-44
2022/07/09 03:00:51;;;;;;;3.00;2.70;;;23.10;55.80;24.10;101901.00;;;;5068059;28;20458;-44
2022/07/09 03:03:17;;;;;;;4.17;2.70;;;23.20;55.70;24.20;101899.00;;;;5067830;28;20178;-44
2022/07/09 03:05:42;;;;;;;2.67;2.47;;;23.10;55.90;24.10;101896.00;;;;5067854;28;20170;-44
2022/07/09 03:08:08;;;;;;;3.00;2.70;;;23.10;55.80;24.10;101899.00;;;;5067987;28;20749;-43
2022/07/09 03:10:34;;;;;;;3.00;2.50;;;23.10;55.80;24.10;101899.00;;;;5067726;28;20250;-44
2022/07/09 03:13:00;;;;;;;2.93;2.70;;;23.10;55.70;24.10;101898.00;;;;5067832;28;20253;-42
2022/07/09 03:15:26;;;;;;;3.17;2.63;;;23.10;55.70;24.10;101904.00;;;;5066332;28;20177;-44
2022/07/09 03:17:52;;;;;;;3.13;2.70;;;23.10;56.00;24.10;101906.00;;;;5067723;28;20268;-46
2022/07/09 03:20:17;;;;;;;3.03;2.77;;;23.10;55.70;24.00;101901.00;;;;5074393;28;20191;-45
2022/07/09 03:22:43;;;;;;;3.10;2.60;;;23.10;55.80;24.00;101895.00;;;;5071439;28;20219;-44
2022/07/09 03:25:09;;;;;;;2.83;2.63;;;23.00;55.80;24.00;101903.00;;;;5067623;28;20162;-44
2022/07/09 03:27:35;;;;;;;4.00;2.63;;;23.00;55.90;24.00;101898.00;;;;5067005;28;20193;-43
2022/07/09 03:30:01;;;;;;;4.70;2.50;;;23.00;56.10;24.00;101902.00;;;;5067184;28;20681;-43
2022/07/09 03:32:27;;;;;;;5.73;2.80;;;23.00;55.90;23.90;101906.00;;;;5065644;28;20547;-44
2022/07/09 03:34:53;;;;;;;4.33;2.73;;;23.00;56.00;23.90;101899.00;;;;5067522;28;20218;-44
2022/07/09 03:37:19;;;;;;;4.17;2.57;;;23.00;56.20;23.90;101891.00;;;;5066810;28;20189;-44
2022/07/09 03:39:45;;;;;;;4.47;2.47;;;23.00;56.20;23.90;101892.00;;;;5067106;28;20269;-44
2022/07/09 03:42:11;;;;;;;2.83;2.53;;;23.00;56.30;23.90;101896.00;;;;5066743;28;20428;-45
2022/07/09 03:44:38;;;;;;;7.17;6.50;;;22.90;55.80;23.90;101888.00;;;;5066681;28;20173;-45
2022/07/09 03:47:04;;;;;;;3.87;3.30;;;22.90;56.00;23.90;101887.00;;;;5066673;28;20197;-45
2022/07/09 03:49:30;;;;;;;3.63;3.33;;;22.90;56.00;23.90;101890.00;;;;5066724;28;20173;-44
2022/07/09 03:51:56;;;;;;;3.80;3.13;;;22.90;56.00;23.90;101891.00;;;;5066874;28;20603;-45
2022/07/09 03:54:22;;;;;;;3.50;2.90;;;22.90;56.00;23.80;101888.00;;;;5066706;28;20544;-44
2022/07/09 03:56:47;;;;;;;3.33;2.90;;;22.90;56.00;23.80;101889.00;;;;5066824;28;20193;-43
2022/07/09 03:59:13;;;;;;;4.47;2.80;;;22.80;56.00;23.80;101890.00;;;;5066416;28;20165;-44
2022/07/09 04:01:39;;;;;;;3.50;2.60;;;22.90;56.00;23.80;101889.00;;;;5066764;28;20445;-44
2022/07/09 04:04:05;;;;;;;4.77;2.80;;;22.80;56.00;23.80;101886.00;;;;5066716;28;20716;-45
2022/07/09 04:06:31;;;;;;;3.23;2.80;;;22.80;55.90;23.80;101890.00;;;;5066654;28;20197;-42
2022/07/09 04:08:56;;;;;;;3.53;2.70;;;22.80;56.40;23.70;101890.00;;;;5066254;28;20188;-46
2022/07/09 04:11:22;;;;;;;3.27;2.83;;;22.80;56.30;23.70;101889.00;;;;5066346;28;20193;-43
2022/07/09 04:13:48;;;;;;;3.50;2.70;;;22.80;56.20;23.70;101891.00;;;;5066871;28;20174;-44
2022/07/09 04:16:15;;;;;;;3.40;2.60;;;22.70;55.90;23.50;101899.00;;;;5066277;28;20194;-43
2022/07/09 04:18:44;;;;;;;4.17;2.50;;;22.70;56.20;23.70;101890.00;;;;5066196;28;20185;-45
2022/07/09 04:21:10;;;;;;;3.47;2.40;;;22.70;55.90;23.70;101890.00;;;;5066892;28;20188;-43
2022/07/09 04:23:36;;;;;;;3.13;2.60;;;22.70;55.80;23.60;101892.00;;;;5066383;28;20260;-44
2022/07/09 04:26:02;;;;;;;3.17;2.70;;;22.70;55.90;23.60;101894.00;;;;5066599;28;20733;-42
2022/07/09 04:28:27;;;;;;;4.07;2.70;;;22.70;56.00;23.60;101891.00;;;;5066172;28;20260;-43
2022/07/09 04:30:56;;;;;;;3.27;2.60;;;22.70;56.10;23.60;101887.00;;;;5066101;28;20233;-46
2022/07/09 04:33:21;;;;;;;5.23;2.70;;;22.70;56.50;23.60;101894.00;;;;5065791;28;20231;-44
2022/07/09 04:35:47;;;;;;;2.90;2.60;;;22.60;56.80;23.60;101900.00;;;;5066228;28;20193;-43
2022/07/09 04:38:13;;;;;;;2.80;2.60;;;22.60;56.70;23.60;101905.00;;;;5066025;28;20173;-42
2022/07/09 04:40:39;;;;;;;2.83;2.63;;;22.60;56.70;23.60;101904.00;;;;5066052;28;20177;-45
2022/07/09 04:43:06;;;;;;;3.00;2.50;;;22.60;56.80;23.60;101907.00;;;;5066252;28;20193;-44
2022/07/09 04:45:32;;;;;;;3.33;2.67;;;22.60;56.80;23.50;101915.00;;;;5066183;28;20228;-43
2022/07/09 04:47:58;;;;;;;4.73;2.70;;;22.60;56.90;23.50;101913.00;;;;5065860;28;20682;-43
2022/07/09 04:50:24;;;;;;;2.80;2.50;;;22.60;56.70;23.50;101908.00;;;;5067486;28;20182;-45
2022/07/09 04:52:50;;;;;;;4.70;2.53;;;22.50;56.60;23.50;101906.00;;;;5074425;28;20793;-43
2022/07/09 04:55:16;;;;;;;3.97;2.70;;;22.50;56.60;23.50;101901.00;;;;5065689;28;20176;-43
2022/07/09 04:57:43;;;;;;;3.13;2.57;;;22.50;56.90;23.50;101909.00;;;;5065468;28;20364;-44
2022/07/09 05:00:10;;;;;;;2.70;2.50;;;22.50;56.90;23.50;101893.00;;;;5065793;28;20165;-44
2022/07/09 05:02:36;;;;;;;2.60;2.40;;;22.50;57.30;23.50;101904.00;;;;5065816;28;20246;-44
2022/07/09 05:05:03;;;;;;;2.97;2.67;;;22.50;56.60;23.50;101904.00;;;;5065691;28;20178;-44
2022/07/09 05:07:30;;;;;;;3.23;2.73;;;22.50;56.60;23.40;101905.00;;;;5065353;28;20834;-43
2022/07/09 05:09:56;;;;;;;2.57;2.37;;;22.50;56.40;23.40;101902.00;;;;5073688;28;20182;-44
2022/07/09 05:12:22;;;;;;;3.03;2.67;;;22.50;56.30;23.40;101898.00;;;;5070185;28;20193;-43
2022/07/09 05:14:48;;;;;;;3.47;2.70;;;22.40;56.50;23.40;101902.00;;;;5066001;28;20649;-44
2022/07/09 05:17:13;;;;;;;3.70;2.40;;;22.40;56.50;23.40;101898.00;;;;5065149;28;20554;-43
2022/07/09 05:19:39;;;;;;;4.70;2.53;;;22.50;56.60;23.40;101910.00;;;;5065515;28;20738;-44
2022/07/09 05:22:05;;;;;;;3.13;2.50;;;22.50;56.60;23.40;101907.00;;;;5065268;28;20825;-44
2022/07/09 05:24:31;;;;;;;3.20;2.50;;;22.40;56.50;23.30;101899.00;;;;5065340;28;20209;-43
2022/07/09 05:26:56;;;;;;;3.00;2.67;;;22.40;56.50;23.30;101890.00;;;;5065343;28;20696;-44
2022/07/09 05:29:22;;;;;;;3.40;2.90;;;22.40;56.70;23.30;101897.00;;;;5064951;28;20544;-44
2022/07/09 05:31:49;;;;;;;3.27;2.80;;;22.40;57.40;23.30;101903.00;;;;5065595;28;20205;-45
2022/07/09 05:34:15;;;;;;;3.17;2.87;;;22.40;56.90;23.30;101901.00;;;;5065580;28;20185;-43
2022/07/09 05:36:41;;;;;;;3.77;3.20;;;22.40;57.00;23.30;101899.00;;;;5065157;28;20194;-45
2022/07/09 05:39:07;;;;;;;4.40;3.10;;;22.40;58.50;23.30;101906.00;;;;5064861;28;20252;-44
2022/07/09 05:41:33;;;;;;;3.77;3.00;;;22.30;57.30;23.30;101895.00;;;;5065329;28;20174;-43
2022/07/09 05:43:59;;;;;;;3.60;3.20;;;22.30;57.30;23.30;101894.00;;;;5065383;28;20170;-44
2022/07/09 05:46:25;;;;;;;4.00;3.60;;;22.30;57.10;23.30;101894.00;;;;5066626;28;20617;-44
2022/07/09 05:48:50;;;;;;;4.83;3.97;;;22.40;58.40;23.30;101903.00;;;;5068872;28;20179;-44
2022/07/09 05:51:16;;;;;;;4.20;3.80;;;22.30;58.10;23.30;101919.00;;;;5069077;28;20198;-43
2022/07/09 05:53:42;;;;;;;3.40;3.10;;;22.30;57.90;23.20;101920.00;;;;5069051;28;20654;-43
2022/07/09 05:56:08;;;;;;;3.07;2.77;;;22.30;57.50;23.20;101917.00;;;;5068932;28;20201;-44
2022/07/09 05:58:33;;;;;;;3.50;3.20;;;22.30;57.30;23.20;101927.00;;;;5069352;28;20256;-42
2022/07/09 06:00:59;;;;;;;3.87;3.20;;;22.30;57.30;23.20;101918.00;;;;5068920;28;20261;-43
2022/07/09 06:03:25;;;;;;;3.80;3.20;;;22.30;57.60;23.20;101910.00;;;;5068881;28;20181;-43
2022/07/09 06:05:50;;;;;;;3.93;3.47;;;22.30;57.30;23.20;101918.00;;;;5068372;28;20180;-46
2022/07/09 06:08:16;;;;;;;4.67;3.90;;;22.30;58.80;23.20;101914.00;;;;5068189;28;20201;-44
2022/07/09 06:10:42;;;;;;;5.10;3.97;;;22.30;59.20;23.20;101915.00;;;;5068805;28;20240;-44
2022/07/09 06:13:08;;;;;;;4.80;4.40;;;22.20;58.70;23.20;101925.00;;;;5068721;28;20189;-44
2022/07/09 06:15:34;;;;;;;6.07;4.40;;;22.20;59.10;23.20;101920.00;;;;5068564;28;20209;-44
2022/07/09 06:18:01;;;;;;;6.50;5.00;;;22.20;59.20;23.10;101917.00;;;;5068160;28;20623;-43
2022/07/09 06:20:27;;;;;;;5.27;4.30;;;22.20;60.20;23.10;101912.00;;;;5068677;28;20650;-43
2022/07/09 06:22:53;;;;;;;5.53;5.03;;;22.30;59.40;23.10;101905.00;;;;5068662;28;20227;-44
2022/07/09 06:25:18;;;;;;;8.27;6.87;;;22.20;59.90;23.00;101905.00;;;;5068737;28;20161;-43
2022/07/09 06:27:44;;;;;;;5.97;5.37;;;22.20;60.90;23.10;101906.00;;;;5067883;28;20220;-43
2022/07/09 06:30:10;;;;;;;5.77;4.23;;;22.20;60.20;23.10;101906.00;;;;5068468;28;20173;-44
2022/07/09 06:32:36;;;;;;;6.17;5.67;;;22.20;59.20;23.10;101899.00;;;;5068418;28;20573;-44
2022/07/09 06:35:02;;;;;;;7.70;6.50;;;22.20;59.30;23.10;101904.00;;;;5068465;28;20173;-45
2022/07/09 06:37:28;;;;;;;6.47;5.87;;;22.20;59.60;23.10;101902.00;;;;5066005;28;20753;-43
2022/07/09 06:39:56;;;;;;;5.10;4.60;;;22.30;59.50;23.00;101894.00;;;;5068469;28;20264;-43
2022/07/09 06:42:22;;;;;;;5.60;5.10;;;22.20;59.30;23.00;101894.00;;;;5068239;28;20177;-43
2022/07/09 06:44:48;;;;;;;5.00;4.50;;;22.10;59.50;23.00;101895.00;;;;5068246;28;20254;-43
2022/07/09 06:47:13;;;;;;;8.00;7.00;;;22.10;59.20;23.00;101902.00;;;;5067688;28;20205;-43
2022/07/09 06:49:39;;;;;;;7.20;6.50;;;22.10;60.20;23.00;101903.00;;;;5068000;28;20174;-44
2022/07/09 06:52:05;;;;;;;7.87;7.03;;;22.20;60.90;23.00;101899.00;;;;5067929;28;20205;-44
2022/07/09 06:54:31;;;;;;;5.93;5.30;;;22.10;61.10;23.00;101894.00;;;;5068127;28;20615;-44
2022/07/09 06:56:57;;;;;;;5.80;5.30;;;22.10;60.60;23.00;101893.00;;;;5067445;28;20189;-43
2022/07/09 06:59:26;;;;;;;8.13;7.40;;;22.10;60.10;23.00;101899.00;;;;5067855;28;20228;-42
2022/07/09 07:01:51;;;;;;;8.60;7.80;;;22.10;61.80;23.00;101901.00;;;;5068202;28;20204;-43
2022/07/09 07:04:17;;;;;;;6.07;5.40;;;22.10;62.70;22.90;101894.00;;;;5067903;28;20783;-43
2022/07/09 07:06:44;;;;;;;5.57;4.97;;;22.10;61.30;22.90;101905.00;;;;5067572;28;20221;-43
2022/07/09 07:09:10;;;;;;;5.27;4.77;;;22.10;60.90;22.70;101906.00;;;;5067671;28;20177;-45
2022/07/09 07:11:36;;;;;;;4.80;4.40;;;22.10;60.70;23.00;101910.00;;;;5067724;28;20197;-43
2022/07/09 07:14:01;;;;;;;5.27;4.43;;;22.10;60.50;23.00;101900.00;;;;5067846;28;20176;-43
2022/07/09 07:16:27;;;;;;;8.03;6.63;;;22.10;60.30;23.00;101908.00;;;;5067209;28;20840;-42
2022/07/09 07:18:54;;;;;;;6.17;5.13;;;22.10;61.20;22.90;101896.00;;;;5078032;28;20969;-43
2022/07/09 07:21:20;;;;;;;4.80;4.40;;;22.10;60.70;22.90;101900.00;;;;5070158;28;20587;-43
2022/07/09 07:23:45;;;;;;;4.93;4.37;;;22.00;60.60;22.90;101898.00;;;;5067458;28;20185;-43
2022/07/09 07:26:11;;;;;;;4.37;3.90;;;22.00;60.60;22.90;101907.00;;;;5066917;28;20200;-43
2022/07/09 07:28:37;;;;;;;5.13;4.10;;;22.00;60.60;22.90;101899.00;;;;5067296;28;20182;-44
2022/07/09 07:31:03;;;;;;;4.23;3.87;;;22.10;60.70;23.00;101904.00;;;;5067469;28;20190;-44
2022/07/09 07:33:28;;;;;;;4.00;3.50;;;22.10;60.40;23.00;101906.00;;;;5067363;28;20177;-44
2022/07/09 07:35:54;;;;;;;5.00;3.90;;;22.10;60.50;23.00;101895.00;;;;5067225;28;20226;-44
2022/07/09 07:38:20;;;;;;;3.70;3.40;;;22.10;60.70;23.00;101898.00;;;;5067031;28;20170;-44
2022/07/09 07:40:45;;;;;;;4.27;3.80;;;22.10;60.90;23.00;101905.00;;;;5067526;28;20299;-44
2022/07/09 07:43:11;;;;;;;4.40;3.43;;;22.10;60.50;23.00;101896.00;;;;5066995;28;20170;-43
2022/07/09 07:45:37;;;;;;;4.83;4.20;;;22.20;60.90;23.00;101897.00;;;;5067161;28;20185;-44
2022/07/09 07:48:03;;;;;;;3.97;3.50;;;22.20;60.90;23.00;101888.00;;;;5067245;28;20289;-43
2022/07/09 07:50:29;;;;;;;4.90;3.50;;;22.20;60.90;23.00;101888.00;;;;5066676;28;20181;-43
2022/07/09 07:52:55;;;;;;;4.47;3.47;;;22.20;61.10;23.00;101878.00;;;;5065992;28;20188;-44
2022/07/09 07:55:21;;;;;;;3.77;3.30;;;22.20;61.20;23.00;101888.00;;;;5011479;28;20172;-44
2022/07/09 07:57:47;;;;;;;5.77;3.40;;;22.20;60.90;23.10;101889.00;;;;5086099;28;20831;-44
2022/07/09 08:00:13;;;;;;;4.40;3.37;;;22.20;60.90;23.10;101894.00;;;;5093906;28;20171;-43
2022/07/09 08:02:38;;;;;;;4.43;3.70;;;22.20;60.30;23.10;101889.00;;;;5109137;28;20172;-43
2022/07/09 08:05:05;;;;;;;3.57;3.20;;;22.20;61.10;23.00;101895.00;;;;5110450;27;20171;-45
2022/07/09 08:07:31;;;;;;;4.07;3.30;;;22.10;61.10;23.00;101895.00;;;;5110056;28;20204;-43
2022/07/09 08:09:56;;;;;;;4.23;3.20;;;22.10;60.80;22.90;101899.00;;;;5109511;28;20264;-42
2022/07/09 08:12:22;;;;;;;4.57;3.30;;;22.00;61.20;22.90;101892.00;;;;5103114;28;20450;-42
2022/07/09 08:14:48;;;;;;;4.57;2.87;;;22.00;61.10;22.90;101890.00;;;;5089582;28;20720;-43
2022/07/09 08:17:13;;;;;;;3.80;3.10;;;22.10;61.30;22.90;101903.00;;;;5089191;28;20271;-44
2022/07/09 08:19:39;;;;;;;3.57;3.27;;;22.10;61.00;22.90;101880.00;;;;5089816;28;20169;-44
2022/07/09 08:22:05;;;;;;;4.43;2.90;;;22.00;60.90;22.90;101894.00;;;;5089649;28;20177;-44
2022/07/09 08:24:31;;;;;;;2.90;2.63;;;22.10;61.20;22.90;101892.00;;;;5096806;28;20194;-44
2022/07/09 08:26:58;;;;;;;3.40;2.80;;;22.10;61.00;22.90;101890.00;;;;5094991;28;20288;-43
2022/07/09 08:29:24;;;;;;;3.37;2.90;;;22.10;60.90;22.90;101900.00;;;;5089448;28;20181;-43
2022/07/09 08:31:50;;;;;;;5.40;3.53;;;22.10;60.70;22.90;101886.00;;;;5089417;28;20207;-43
2022/07/09 08:34:16;;;;;;;8.00;3.50;;;22.00;60.90;22.90;101896.00;;;;5089540;28;20177;-44
2022/07/09 08:36:42;;;;;;;7.50;3.70;;;22.00;61.20;22.90;101887.00;;;;5089514;28;20246;-43
2022/07/09 08:39:08;;;;;;;6.40;3.67;;;22.00;61.10;22.90;101882.00;;;;5089100;28;20625;-43
2022/07/09 08:41:34;;;;;;;4.23;3.03;;;22.10;61.10;23.00;101878.00;;;;5090014;28;20385;-42
2022/07/09 08:43:59;;;;;;;4.17;3.20;;;22.10;61.70;23.00;101872.00;;;;5089586;28;20213;-42
2022/07/09 08:46:25;;;;;;;5.27;2.87;;;22.20;61.70;23.00;101873.00;;;;5105017;28;20208;-42
2022/07/09 08:48:51;;;;;;;4.13;2.63;;;22.20;61.50;23.00;101881.00;;;;5104454;28;20184;-43
2022/07/09 08:51:19;;;;;;;3.87;2.80;;;22.20;60.90;23.00;101877.00;;;;5070735;28;20205;-44
2022/07/09 08:53:44;;;;;;;3.67;2.83;;;22.20;60.80;23.00;101873.00;;;;5088861;28;20191;-44
2022/07/09 08:56:11;;;;;;;3.47;2.80;;;22.20;61.00;23.10;101870.00;;;;4995871;28;20662;-44
2022/07/09 08:58:38;;;;;;;3.30;2.53;;;22.20;60.90;23.10;101861.00;;;;5085813;28;20226;-44
2022/07/09 09:01:05;;;;;;;4.93;3.13;;;22.30;61.30;23.10;101859.00;;;;5089086;28;20173;-44
2022/07/09 09:03:31;;;;;;;5.97;3.30;;;22.30;61.80;23.10;101856.00;;;;5087723;28;20253;-44
2022/07/09 09:06:04;;;;;;;8.20;3.10;;;22.30;62.30;23.10;101855.00;;;;5088635;28;20719;-44
2022/07/09 09:08:38;;;;;;;4.50;3.30;;;22.40;62.50;23.20;101850.00;;;;5089436;28;20164;-43
2022/07/09 09:11:05;;;;;;;4.33;3.47;;;22.40;62.90;23.20;101847.00;;;;5089182;28;20212;-43
2022/07/09 09:13:33;;;;;;;7.63;3.47;;;22.40;62.40;23.30;101838.00;;;;5088780;28;20259;-43
2022/07/09 09:16:06;;;;;;;5.67;3.73;;;22.50;62.70;23.30;101845.00;;;;5088461;28;20200;-43
2022/07/09 09:18:36;;;;;;;7.37;3.40;;;22.50;63.10;23.30;101836.00;;;;5088591;28;20173;-44
2022/07/09 09:21:04;;;;;;;7.13;3.40;;;22.50;64.00;23.30;101828.00;;;;5088829;28;20176;-42
2022/07/09 09:23:59;;;;;;;8.13;3.50;;;22.50;63.60;23.40;101829.00;;;;5088694;28;20187;-43
2022/07/09 09:26:26;;;;;;;7.00;3.73;;;22.60;63.80;23.40;101818.00;;;;5088688;28;20313;-43
2022/07/09 09:28:52;;;;;;;9.37;3.73;;;22.60;63.80;23.40;101823.00;;;;5088698;28;20256;-43
2022/07/09 09:31:28;;;;;;;5.40;3.60;;;22.60;63.90;23.40;101830.00;;;;5088226;28;20193;-42
2022/07/09 09:33:56;;;;;;;6.43;3.50;;;22.70;63.70;23.50;101823.00;;;;5089110;28;20165;-43
2022/07/09 09:36:47;;;;;;;4.77;3.30;;;22.70;63.60;23.50;101816.00;;;;5088760;28;20184;-43
2022/07/09 09:39:24;;;;;;;5.90;3.13;;;22.70;63.70;23.50;101814.00;;;;5088711;28;20172;-44
2022/07/09 09:42:00;;;;;;;4.80;3.20;;;22.70;63.60;23.50;101815.00;;;;5088401;28;20537;-43
2022/07/09 09:44:36;;;;;;;5.27;2.90;;;22.70;63.60;23.50;101817.00;;;;5088798;28;20197;-43
2022/07/09 09:47:02;;;;;;;4.60;2.90;;;22.70;63.60;23.60;101815.00;;;;5088445;28;20196;-43
2022/07/09 09:49:27;;;;;;;4.63;2.83;;;22.80;63.70;23.60;101812.00;;;;5088673;28;20192;-43
2022/07/09 09:52:02;;;;;;;4.27;2.70;;;22.80;63.70;23.60;101823.00;;;;5103963;28;20197;-43
2022/07/09 09:54:28;;;;;;;4.93;2.70;;;22.80;63.60;23.60;101815.00;;;;5088223;28;20200;-45
2022/07/09 09:56:54;;;;;;;5.10;2.97;;;22.80;63.60;23.70;101815.00;;;;5049152;28;20287;-42
2022/07/09 09:59:20;;;;;;;3.13;2.70;;;22.80;63.50;23.70;101791.00;;;;5124641;28;20180;-43
2022/07/09 10:01:46;;;;;;;4.90;3.00;;;22.80;63.50;23.70;101803.00;;;;5098040;28;20229;-44
2022/07/09 10:04:13;;;;;;;4.57;2.80;;;22.90;63.40;23.70;101754.00;;;;5074859;28;20495;-43
2022/07/09 10:06:38;;;;;;;2.93;2.53;;;22.90;63.40;23.70;101804.00;;;;5068002;28;20662;-45
2022/07/09 10:09:07;;;;;;;4.07;2.83;;;22.90;63.30;23.80;101795.00;;;;5066685;28;20169;-44
2022/07/09 10:11:48;;;;;;;4.83;2.80;;;23.00;63.30;23.80;101797.00;;;;5066744;28;20210;-44
2022/07/09 10:14:23;;;;;;;4.13;2.60;;;23.00;63.30;23.80;101790.00;;;;5068207;28;20178;-43
2022/07/09 10:16:48;;;;;;;5.73;2.80;;;23.00;63.30;23.80;101790.00;;;;5067774;28;20189;-45
2022/07/09 10:19:33;;;;;;;5.03;2.67;;;23.00;63.20;23.90;101792.00;;;;5068374;28;20505;-43
2022/07/09 10:21:59;;;;;;;3.10;2.60;;;23.00;63.10;23.90;101794.00;;;;5067878;28;20189;-42
2022/07/09 10:24:26;;;;;;;3.77;2.60;;;23.00;63.10;23.90;101778.00;;;;5066860;28;20194;-43
2022/07/09 10:26:52;;;;;;;3.07;2.50;;;23.10;63.20;23.90;101796.00;;;;5068096;28;20193;-44
2022/07/09 10:29:26;;;;;;;3.83;2.40;;;23.00;63.10;23.90;101776.00;;;;5068405;28;20178;-44
2022/07/09 10:31:53;;;;;;;3.83;2.50;;;23.10;63.40;23.90;101775.00;;;;5069132;28;20301;-43
2022/07/09 10:34:30;;;;;;;2.60;2.20;;;23.10;63.40;24.00;101779.00;;;;5071718;28;20177;-42
2022/07/09 10:37:04;;;;;;;3.03;2.30;;;23.10;63.30;24.00;101781.00;;;;5071326;28;20676;-43
2022/07/09 10:39:30;;;;;;;2.43;2.20;;;23.20;63.30;24.00;101757.00;;;;5071039;28;20632;-44
2022/07/09 10:42:04;;;;;;;2.30;2.10;;;23.20;63.30;24.00;101778.00;;;;5070150;28;20643;-45
2022/07/09 10:44:37;;;;;;;3.50;2.40;;;23.20;63.30;24.00;101766.00;;;;5071391;28;20169;-43